createdAt,value
2022-12-31T00:01:26.130Z,75.31
2022-12-31T00:03:55.271Z,75.29
2022-12-31T00:06:35.637Z,75.09
2022-12-31T00:09:06.833Z,75.07
2022-12-31T00:11:36.653Z,74.97
2022-12-31T00:14:05.508Z,75.02
2022-12-31T00:16:38.339Z,74.75
2022-12-31T00:19:10.226Z,74.84
2022-12-31T00:21:39.048Z,74.81
2022-12-31T00:24:08.197Z,74.63
2022-12-31T00:26:36.219Z,74.86
2022-12-31T00:29:05.390Z,75.15
2022-12-31T00:31:37.161Z,75.17
2022-12-31T00:34:06.514Z,75.52
2022-12-31T00:36:38.433Z,75.92
2022-12-31T00:39:08.520Z,76.23
2022-12-31T00:41:37.107Z,76.42
2022-12-31T00:44:05.677Z,76.12
2022-12-31T00:46:33.690Z,76.03
2022-12-31T00:49:01.809Z,75.80
2022-12-31T00:51:30.082Z,76.06
2022-12-31T00:53:58.311Z,75.82
2022-12-31T00:56:30.351Z,75.92
2022-12-31T00:59:00.227Z,75.90
2022-12-31T01:01:32.977Z,75.97
2022-12-31T01:04:07.079Z,76.00
2022-12-31T01:06:35.469Z,75.60
2022-12-31T01:09:05.167Z,75.74
2022-12-31T01:11:33.426Z,75.77
2022-12-31T01:14:14.889Z,75.84
2022-12-31T01:16:52.543Z,76.14
2022-12-31T01:19:28.920Z,76.12
2022-12-31T01:21:57.332Z,76.32
2022-12-31T01:24:25.430Z,76.20
2022-12-31T01:26:57.647Z,76.05
2022-12-31T01:29:27.589Z,75.82
2022-12-31T01:31:55.539Z,75.81
2022-12-31T01:34:23.545Z,75.91
2022-12-31T01:36:51.603Z,76.08
2022-12-31T01:39:19.825Z,75.88
2022-12-31T01:41:47.978Z,75.93
2022-12-31T01:44:24.872Z,75.63
2022-12-31T01:46:58.266Z,75.90
2022-12-31T01:49:47.719Z,75.55
2022-12-31T01:52:32.380Z,75.75
2022-12-31T01:55:08.663Z,75.78
2022-12-31T01:57:38.140Z,75.84
2022-12-31T02:00:08.050Z,76.17
2022-12-31T02:02:36.432Z,76.20
2022-12-31T02:05:18.441Z,76.58
2022-12-31T02:07:48.092Z,76.38
2022-12-31T02:10:16.491Z,76.64
2022-12-31T02:12:45.291Z,76.91
2022-12-31T02:15:13.402Z,76.76
2022-12-31T02:18:17.353Z,76.69
2022-12-31T02:21:36.352Z,76.78
2022-12-31T02:24:39.044Z,77.03
2022-12-31T02:27:26.094Z,77.22
2022-12-31T02:29:59.644Z,77.38
2022-12-31T02:32:38.107Z,77.62
2022-12-31T02:35:20.245Z,77.54
2022-12-31T02:37:53.075Z,77.63
2022-12-31T02:40:22.363Z,77.59
2022-12-31T02:42:55.300Z,77.35
2022-12-31T02:45:31.196Z,77.65
2022-12-31T02:48:36.920Z,77.60
2022-12-31T02:51:41.929Z,77.98
2022-12-31T02:54:28.181Z,78.06
2022-12-31T02:58:02.525Z,77.93
2022-12-31T03:00:54.753Z,78.13
2022-12-31T03:03:24.305Z,78.11
2022-12-31T03:05:52.729Z,78.31
2022-12-31T03:08:26.398Z,78.28
2022-12-31T03:10:56.786Z,78.40
2022-12-31T03:13:25.013Z,78.68
2022-12-31T03:15:52.905Z,78.67
2022-12-31T03:18:43.694Z,78.59
2022-12-31T03:21:32.059Z,78.72
2022-12-31T03:24:18.862Z,78.71
2022-12-31T03:26:46.924Z,78.96
2022-12-31T03:29:15.418Z,78.85
2022-12-31T03:31:43.294Z,78.99
2022-12-31T03:34:11.197Z,79.00
2022-12-31T03:36:39.591Z,79.13
2022-12-31T03:39:07.421Z,79.09
2022-12-31T03:41:35.297Z,79.28
2022-12-31T03:44:03.166Z,79.43
2022-12-31T03:46:31.075Z,79.40
2022-12-31T03:48:59.057Z,79.59
2022-12-31T03:51:26.938Z,79.78
2022-12-31T03:53:54.787Z,79.96
2022-12-31T03:56:22.675Z,79.73
2022-12-31T03:58:50.531Z,79.64
2022-12-31T04:01:19.552Z,79.59
2022-12-31T04:03:47.604Z,79.79
2022-12-31T04:06:15.913Z,79.64
2022-12-31T04:08:43.918Z,79.85
2022-12-31T04:11:14.728Z,80.06
2022-12-31T04:13:46.868Z,79.79
2022-12-31T04:16:14.842Z,79.72
2022-12-31T04:18:42.746Z,79.98
2022-12-31T04:21:10.624Z,80.09
2022-12-31T04:23:38.578Z,80.36
2022-12-31T04:26:06.493Z,80.27
2022-12-31T04:28:34.441Z,80.27
2022-12-31T04:31:04.168Z,80.55
2022-12-31T04:33:32.068Z,80.45
2022-12-31T04:36:07.888Z,80.83
2022-12-31T04:38:35.847Z,80.97
2022-12-31T04:41:20.867Z,80.88
2022-12-31T04:43:52.261Z,81.38
2022-12-31T04:46:29.411Z,81.48
2022-12-31T04:48:57.793Z,81.68
2022-12-31T04:51:29.635Z,81.99
2022-12-31T04:53:58.798Z,82.14
2022-12-31T04:56:28.250Z,82.27
2022-12-31T04:58:56.786Z,82.47
2022-12-31T05:01:25.345Z,82.43
2022-12-31T05:03:53.502Z,82.67
2022-12-31T05:06:23.597Z,82.78
2022-12-31T05:08:51.533Z,82.90
2022-12-31T05:11:19.459Z,83.18
2022-12-31T05:13:47.375Z,82.97
2022-12-31T05:16:15.432Z,83.39
2022-12-31T05:18:43.341Z,83.36
2022-12-31T05:21:18.062Z,83.36
2022-12-31T05:23:46.073Z,83.47
2022-12-31T05:26:14.715Z,83.35
2022-12-31T05:28:42.791Z,83.61
2022-12-31T05:31:10.792Z,83.46
2022-12-31T05:33:38.748Z,83.58
2022-12-31T05:36:07.260Z,83.71
2022-12-31T05:38:35.217Z,83.66
2022-12-31T05:41:07.645Z,83.96
2022-12-31T05:43:35.596Z,83.92
2022-12-31T05:46:04.748Z,83.80
2022-12-31T05:48:33.271Z,84.01
2022-12-31T05:51:01.143Z,83.83
2022-12-31T05:53:29.503Z,83.96
2022-12-31T05:55:57.385Z,83.85
2022-12-31T05:58:25.259Z,84.15
2022-12-31T06:00:53.240Z,84.09
2022-12-31T06:03:21.322Z,83.86
2022-12-31T06:05:49.570Z,84.02
2022-12-31T06:08:17.531Z,83.88
2022-12-31T06:10:45.576Z,83.74
2022-12-31T06:13:13.408Z,84.12
2022-12-31T06:15:41.571Z,84.36
2022-12-31T06:18:09.482Z,84.38
2022-12-31T06:20:38.223Z,84.27
2022-12-31T06:23:06.319Z,84.31
2022-12-31T06:25:39.623Z,84.33
2022-12-31T06:28:07.561Z,84.28
2022-12-31T06:30:35.532Z,84.32
2022-12-31T06:33:03.593Z,84.50
2022-12-31T06:35:31.440Z,84.41
2022-12-31T06:37:59.329Z,84.45
2022-12-31T06:40:27.395Z,84.60
2022-12-31T06:42:59.830Z,84.30
2022-12-31T06:45:28.294Z,84.59
2022-12-31T06:47:56.219Z,84.48
2022-12-31T06:50:24.060Z,84.65
2022-12-31T06:52:51.927Z,84.49
2022-12-31T06:55:20.474Z,84.72
2022-12-31T06:57:48.984Z,84.47
2022-12-31T07:00:17.985Z,84.74
2022-12-31T07:02:58.217Z,84.92
2022-12-31T07:05:39.186Z,85.03
2022-12-31T07:08:57.300Z,85.02
2022-12-31T07:11:35.733Z,84.85
2022-12-31T07:14:25.378Z,85.08
2022-12-31T07:17:47.689Z,85.44
2022-12-31T07:20:18.433Z,85.39
2022-12-31T07:22:46.782Z,85.54
2022-12-31T07:25:17.471Z,85.52
2022-12-31T07:28:19.552Z,85.97
2022-12-31T07:31:11.825Z,85.76
2022-12-31T07:34:09.553Z,85.33
2022-12-31T07:36:55.440Z,85.43
2022-12-31T07:39:38.538Z,85.25
2022-12-31T07:42:21.103Z,85.01
2022-12-31T07:45:13.551Z,84.90
2022-12-31T07:47:41.849Z,85.23
2022-12-31T07:50:19.534Z,85.57
2022-12-31T07:52:47.945Z,85.54
2022-12-31T07:55:16.527Z,85.55
2022-12-31T07:58:08.030Z,85.24
2022-12-31T08:00:36.066Z,85.13
2022-12-31T08:03:42.991Z,85.03
2022-12-31T08:06:39.721Z,84.54
2022-12-31T08:09:33.015Z,84.58
2022-12-31T08:12:01.673Z,84.88
2022-12-31T08:14:30.328Z,85.48
2022-12-31T08:16:58.671Z,86.59
2022-12-31T08:19:32.512Z,87.83
2022-12-31T08:22:18.035Z,88.92
2022-12-31T08:25:18.723Z,89.31
2022-12-31T08:28:07.780Z,89.82
2022-12-31T08:30:56.047Z,89.66
2022-12-31T08:33:52.314Z,89.82
2022-12-31T08:36:40.745Z,89.60
2022-12-31T08:39:57.304Z,89.21
2022-12-31T08:42:32.651Z,88.63
2022-12-31T08:45:24.188Z,88.46
2022-12-31T08:48:19.128Z,87.41
2022-12-31T08:50:47.860Z,87.22
2022-12-31T08:53:16.176Z,87.29
2022-12-31T08:55:46.451Z,87.13
2022-12-31T08:58:40.160Z,86.66
2022-12-31T09:01:09.315Z,86.26
2022-12-31T09:03:58.434Z,86.70
2022-12-31T09:06:38.431Z,86.36
2022-12-31T09:09:34.474Z,86.06
2022-12-31T09:12:28.653Z,85.89
2022-12-31T09:15:05.797Z,85.87
2022-12-31T09:17:43.886Z,86.31
2022-12-31T09:20:44.375Z,86.15
2022-12-31T09:23:13.593Z,85.99
2022-12-31T09:26:32.574Z,85.64
2022-12-31T09:29:28.507Z,85.05
2022-12-31T09:32:18.713Z,84.94
2022-12-31T09:35:24.828Z,84.75
2022-12-31T09:38:30.743Z,84.72
2022-12-31T09:41:15.609Z,84.21
2022-12-31T09:44:10.078Z,83.27
2022-12-31T09:47:16.467Z,82.77
2022-12-31T09:50:36.249Z,81.95
2022-12-31T09:53:16.364Z,80.91
2022-12-31T09:55:59.569Z,80.62
2022-12-31T09:59:06.304Z,80.23
2022-12-31T10:01:48.473Z,79.98
2022-12-31T10:05:03.819Z,79.65
2022-12-31T10:08:21.945Z,79.46
2022-12-31T10:10:57.433Z,79.07
2022-12-31T10:14:07.022Z,78.90
2022-12-31T10:17:05.190Z,78.74
2022-12-31T10:20:16.619Z,78.26
2022-12-31T10:23:30.412Z,78.10
2022-12-31T10:26:05.598Z,77.93
2022-12-31T10:29:26.629Z,77.44
2022-12-31T10:32:15.542Z,77.17
2022-12-31T10:35:02.175Z,76.83
2022-12-31T10:38:20.460Z,76.59
2022-12-31T10:41:07.133Z,76.34
2022-12-31T10:44:12.136Z,76.07
2022-12-31T10:47:28.859Z,75.79
2022-12-31T10:50:26.271Z,75.25
2022-12-31T10:53:31.963Z,74.93
2022-12-31T10:56:09.471Z,74.58
2022-12-31T10:59:08.733Z,74.78
2022-12-31T11:02:19.059Z,74.99
2022-12-31T11:05:06.484Z,74.91
2022-12-31T11:08:24.640Z,74.86
2022-12-31T11:11:27.015Z,75.02
2022-12-31T11:14:23.234Z,74.88
2022-12-31T11:17:42.068Z,74.89
2022-12-31T11:20:33.843Z,74.71
2022-12-31T11:23:35.320Z,74.38
2022-12-31T11:26:51.156Z,74.13
2022-12-31T11:29:57.374Z,73.80
2022-12-31T11:33:14.054Z,73.54
2022-12-31T11:36:29.027Z,73.32
2022-12-31T11:39:47.800Z,73.31
2022-12-31T11:42:40.421Z,73.29
2022-12-31T11:45:32.869Z,73.18
2022-12-31T11:48:34.742Z,73.34
2022-12-31T11:51:23.946Z,73.14
2022-12-31T11:54:26.053Z,73.15
2022-12-31T11:57:09.509Z,72.85
2022-12-31T11:59:37.860Z,72.50
2022-12-31T12:02:55.290Z,72.66
2022-12-31T12:05:25.719Z,72.69
2022-12-31T12:07:54.355Z,72.74
2022-12-31T12:10:35.536Z,72.54
2022-12-31T12:13:18.776Z,72.33
2022-12-31T12:15:57.358Z,72.38
2022-12-31T12:18:45.920Z,72.56
2022-12-31T12:21:17.161Z,72.26
2022-12-31T12:23:57.381Z,71.88
2022-12-31T12:26:45.800Z,71.62
2022-12-31T12:29:21.023Z,71.54
2022-12-31T12:32:05.163Z,71.60
2022-12-31T12:34:37.674Z,71.86
2022-12-31T12:37:27.022Z,72.12
2022-12-31T12:40:02.413Z,72.15
2022-12-31T12:42:30.719Z,72.10
2022-12-31T12:45:19.901Z,71.99
2022-12-31T12:47:56.055Z,71.96
2022-12-31T12:50:43.293Z,71.85
2022-12-31T12:53:26.332Z,71.80
2022-12-31T12:56:41.633Z,71.57
2022-12-31T12:59:50.408Z,71.54
2022-12-31T13:03:09.317Z,71.57
2022-12-31T13:06:26.320Z,71.53
2022-12-31T13:09:15.720Z,71.32
2022-12-31T13:12:20.401Z,71.37
2022-12-31T13:15:13.123Z,71.53
2022-12-31T13:18:23.132Z,71.47
2022-12-31T13:21:03.295Z,71.44
2022-12-31T13:23:50.297Z,71.53
2022-12-31T13:26:35.774Z,71.58
2022-12-31T13:29:05.738Z,71.76
2022-12-31T13:31:40.037Z,71.61
2022-12-31T13:34:17.698Z,71.70
2022-12-31T13:36:51.015Z,71.73
2022-12-31T13:39:37.549Z,71.68
2022-12-31T13:42:24.327Z,71.75
2022-12-31T13:45:12.870Z,71.78
2022-12-31T13:47:49.022Z,72.06
2022-12-31T13:51:00.450Z,72.23
2022-12-31T13:53:38.366Z,72.26
2022-12-31T13:56:33.700Z,72.39
2022-12-31T13:59:20.628Z,72.49
2022-12-31T14:02:00.816Z,72.58
2022-12-31T14:04:42.525Z,72.68
2022-12-31T14:07:20.651Z,72.69
2022-12-31T14:09:48.984Z,72.78
2022-12-31T14:12:56.135Z,72.95
2022-12-31T14:15:37.927Z,73.01
2022-12-31T14:18:44.770Z,73.19
2022-12-31T14:21:28.786Z,73.30
2022-12-31T14:24:21.957Z,73.16
2022-12-31T14:26:57.067Z,73.12
2022-12-31T14:29:43.429Z,73.09
2022-12-31T14:32:32.783Z,73.26
2022-12-31T14:35:34.649Z,73.25
2022-12-31T14:38:20.090Z,73.15
2022-12-31T14:41:18.990Z,73.18
2022-12-31T14:44:14.925Z,73.26
2022-12-31T14:47:02.173Z,73.02
2022-12-31T14:50:03.986Z,73.16
2022-12-31T14:52:49.812Z,72.91
2022-12-31T14:55:18.225Z,72.49
2022-12-31T14:58:25.903Z,72.40
2022-12-31T15:00:40.818Z,71.96
2022-12-31T15:03:14.998Z,71.87
2022-12-31T15:06:00.279Z,71.73
2022-12-31T15:09:16.640Z,71.78
2022-12-31T15:12:09.668Z,71.85
2022-12-31T15:14:54.794Z,71.81
2022-12-31T15:17:54.051Z,71.94
2022-12-31T15:20:49.241Z,72.30
2022-12-31T15:23:35.032Z,72.46
2022-12-31T15:26:04.405Z,72.60
2022-12-31T15:28:38.581Z,72.60
2022-12-31T15:31:20.460Z,72.77
2022-12-31T15:34:25.550Z,72.87
2022-12-31T15:36:58.148Z,73.12
2022-12-31T15:39:32.355Z,73.17
2022-12-31T15:42:36.804Z,73.36
2022-12-31T15:44:56.373Z,73.28
2022-12-31T15:47:39.676Z,73.13
2022-12-31T15:50:20.653Z,72.82
2022-12-31T15:52:59.874Z,72.69
2022-12-31T15:55:50.662Z,72.77
2022-12-31T15:58:26.367Z,72.73
2022-12-31T16:01:19.072Z,72.45
2022-12-31T16:03:55.524Z,72.35
2022-12-31T16:06:28.337Z,72.07
2022-12-31T16:08:56.579Z,72.16
2022-12-31T16:11:27.829Z,72.25
2022-12-31T16:13:58.531Z,72.29
2022-12-31T16:16:31.504Z,72.50
2022-12-31T16:19:01.036Z,72.45
2022-12-31T16:21:37.426Z,72.42
2022-12-31T16:24:33.162Z,72.59
2022-12-31T16:27:08.186Z,72.78
2022-12-31T16:29:41.297Z,72.86
2022-12-31T16:32:19.086Z,72.82
2022-12-31T16:34:46.985Z,72.66
2022-12-31T16:37:21.559Z,72.57
2022-12-31T16:39:55.830Z,72.35
2022-12-31T16:42:29.314Z,72.34
2022-12-31T16:44:57.587Z,72.34
2022-12-31T16:47:38.213Z,72.38
2022-12-31T16:50:17.736Z,72.46
2022-12-31T16:52:50.355Z,72.61
2022-12-31T16:55:24.367Z,72.69
2022-12-31T16:58:01.860Z,72.85
2022-12-31T17:00:29.899Z,72.79
2022-12-31T17:03:11.606Z,72.81
2022-12-31T17:06:09.291Z,73.00
2022-12-31T17:08:50.191Z,73.03
2022-12-31T17:11:30.363Z,73.14
2022-12-31T17:14:07.614Z,73.10
2022-12-31T17:17:03.635Z,73.28
2022-12-31T17:19:45.832Z,73.33
2022-12-31T17:22:35.859Z,73.54
2022-12-31T17:25:06.500Z,73.65
2022-12-31T17:27:36.651Z,73.88
2022-12-31T17:30:43.599Z,73.95
2022-12-31T17:33:11.531Z,73.91
2022-12-31T17:35:44.875Z,74.14
2022-12-31T17:38:21.640Z,73.99
2022-12-31T17:41:04.316Z,74.11
2022-12-31T17:43:37.895Z,74.11
2022-12-31T17:46:16.019Z,74.23
2022-12-31T17:48:49.700Z,74.24
2022-12-31T17:51:18.856Z,74.15
2022-12-31T17:53:52.711Z,74.35
2022-12-31T17:56:21.424Z,74.41
2022-12-31T17:58:54.113Z,74.36
2022-12-31T18:01:23.402Z,74.35
2022-12-31T18:03:51.654Z,74.46
2022-12-31T18:06:19.956Z,74.60
2022-12-31T18:08:48.062Z,74.68
2022-12-31T18:11:23.867Z,74.75
2022-12-31T18:13:53.251Z,75.00
2022-12-31T18:16:21.187Z,75.12
2022-12-31T18:18:49.329Z,75.23
2022-12-31T18:21:28.127Z,75.32
2022-12-31T18:26:25.411Z,75.51
2022-12-31T18:28:53.830Z,75.57
2022-12-31T18:31:26.674Z,75.65
2022-12-31T18:33:57.736Z,75.80
2022-12-31T18:36:27.989Z,75.70
2022-12-31T18:38:56.029Z,75.86
2022-12-31T18:41:31.173Z,76.02
2022-12-31T18:43:59.028Z,76.14
2022-12-31T18:46:27.610Z,76.07
2022-12-31T18:48:55.581Z,76.21
2022-12-31T18:51:31.416Z,76.17
2022-12-31T18:54:02.003Z,76.10
2022-12-31T18:56:30.295Z,75.87
2022-12-31T18:58:59.678Z,75.47
2022-12-31T19:01:40.139Z,75.34
2022-12-31T19:04:26.993Z,75.11
2022-12-31T19:06:56.592Z,74.87
2022-12-31T19:09:44.513Z,74.59
2022-12-31T19:12:14.212Z,74.55
2022-12-31T19:14:42.474Z,74.36
2022-12-31T19:19:37.503Z,74.01
2022-12-31T19:22:14.914Z,73.92
2022-12-31T19:24:42.927Z,73.81
2022-12-31T19:27:11.121Z,73.62
2022-12-31T19:29:39.634Z,73.58
2022-12-31T19:32:07.659Z,73.39
2022-12-31T19:34:35.604Z,73.62
2022-12-31T19:37:03.546Z,73.61
2022-12-31T19:39:31.437Z,73.60
2022-12-31T19:41:59.874Z,73.70
2022-12-31T19:44:27.814Z,73.65
2022-12-31T19:46:55.730Z,73.67
2022-12-31T19:49:24.169Z,73.58
2022-12-31T19:51:52.050Z,73.44
2022-12-31T19:54:20.030Z,73.45
2022-12-31T19:56:47.903Z,73.40
2022-12-31T19:59:15.834Z,73.38
2022-12-31T20:01:44.015Z,73.24
2022-12-31T20:04:12.034Z,73.38
2022-12-31T20:06:39.967Z,73.24
2022-12-31T20:09:07.953Z,73.26
2022-12-31T20:11:36.047Z,73.39
2022-12-31T20:14:04.177Z,73.40
2022-12-31T20:16:33.742Z,73.51
2022-12-31T20:19:01.907Z,73.51
2022-12-31T20:21:29.987Z,73.46
2022-12-31T20:23:57.998Z,73.23
2022-12-31T20:26:26.524Z,73.32
2022-12-31T20:28:54.477Z,73.22
2022-12-31T20:31:28.007Z,73.09
2022-12-31T20:33:56.116Z,73.16
2022-12-31T20:36:24.548Z,73.05
2022-12-31T20:38:52.463Z,73.22
2022-12-31T20:41:22.587Z,73.22
2022-12-31T20:43:51.501Z,73.20
2022-12-31T20:46:25.434Z,73.15
2022-12-31T20:48:56.310Z,73.06
2022-12-31T20:51:25.795Z,73.24
2022-12-31T20:54:00.297Z,73.27
2022-12-31T20:56:31.748Z,73.07
2022-12-31T20:59:00.952Z,73.10
2022-12-31T21:01:41.690Z,73.10
2022-12-31T21:04:17.552Z,73.05
2022-12-31T21:06:45.624Z,73.03
2022-12-31T21:09:14.237Z,73.15
2022-12-31T21:12:01.023Z,73.06
2022-12-31T21:14:28.948Z,72.83
2022-12-31T21:16:56.868Z,72.67
2022-12-31T21:19:24.856Z,72.49
2022-12-31T21:21:52.824Z,72.43
2022-12-31T21:24:24.060Z,72.33
2022-12-31T21:26:55.882Z,72.37
2022-12-31T21:29:23.883Z,72.36
2022-12-31T21:31:51.758Z,72.39
2022-12-31T21:34:21.069Z,72.28
2022-12-31T21:36:49.015Z,72.37
2022-12-31T21:39:16.947Z,72.56
2022-12-31T21:41:50.921Z,72.47
2022-12-31T21:44:21.700Z,72.46
2022-12-31T21:47:35.395Z,72.50
2022-12-31T21:50:04.695Z,72.40
2022-12-31T21:52:34.965Z,72.37
2022-12-31T21:55:24.585Z,72.36
2022-12-31T21:58:24.864Z,72.41
2022-12-31T22:00:59.820Z,72.68
2022-12-31T22:03:28.532Z,72.67
2022-12-31T22:06:22.785Z,72.59
2022-12-31T22:08:54.809Z,72.90
2022-12-31T22:11:26.486Z,72.85
2022-12-31T22:13:55.679Z,72.89
2022-12-31T22:16:23.860Z,73.05
2022-12-31T22:18:56.000Z,72.93
2022-12-31T22:21:25.749Z,72.93
2022-12-31T22:23:56.397Z,72.79
2022-12-31T22:26:28.377Z,72.93
2022-12-31T22:28:59.966Z,72.97
2022-12-31T22:31:32.283Z,73.00
2022-12-31T22:34:00.695Z,72.88
2022-12-31T22:36:28.601Z,72.55
2022-12-31T22:38:58.797Z,72.55
2022-12-31T22:41:27.938Z,72.32
2022-12-31T22:44:03.687Z,72.12
2022-12-31T22:46:34.276Z,72.27
2022-12-31T22:49:04.876Z,72.34
2022-12-31T22:51:55.197Z,72.19
2022-12-31T22:54:21.392Z,72.27
2022-12-31T22:56:49.580Z,72.39
2022-12-31T22:59:17.608Z,72.41
2022-12-31T23:01:45.733Z,72.47
2022-12-31T23:04:13.936Z,72.47
2022-12-31T23:06:44.934Z,72.33
2022-12-31T23:09:34.136Z,72.11
2022-12-31T23:12:04.630Z,71.93
2022-12-31T23:14:51.826Z,71.90
2022-12-31T23:17:45.172Z,71.83
2022-12-31T23:20:37.174Z,71.69
2022-12-31T23:23:10.277Z,71.77
2022-12-31T23:25:50.521Z,71.85
2022-12-31T23:28:24.515Z,71.89
2022-12-31T23:30:53.065Z,71.76
2022-12-31T23:33:24.816Z,71.78
2022-12-31T23:36:06.880Z,71.74
2022-12-31T23:38:34.770Z,71.61
2022-12-31T23:41:16.219Z,71.76
2022-12-31T23:43:44.531Z,71.64
2022-12-31T23:46:13.661Z,71.66
2022-12-31T23:48:42.179Z,71.72
2022-12-31T23:51:10.058Z,71.71
2022-12-31T23:53:38.563Z,71.55
2022-12-31T23:56:22.770Z,71.48
2022-12-31T23:58:56.142Z,71.35
